sensor_id;sensor_type;location;lat;lon;timestamp;pressure;altitude;pressure_sealevel;temperature;humidity
47522;BME280;32291;52.010;4.446;2023-08-24T00:00:45;77959.97;;;-144.67;100.00
47522;BME280;32291;52.010;4.446;2023-08-24T00:01:52;77962.13;;;-144.67;100.00
47522;BME280;32291;52.010;4.446;2023-08-24T00:03:04;77953.56;;;-144.67;100.00
47522;BME280;32291;52.010;4.446;2023-08-24T00:04:11;77953.56;;;-144.67;100.00
47522;BME280;32291;52.010;4.446;2023-08-24T00:05:19;77949.28;;;-144.67;100.00
47522;BME280;32291;52.010;4.446;2023-08-24T00:06:22;77945.00;;;-144.67;100.00
47522;BME280;32291;52.010;4.446;2023-08-24T00:07:30;77945.00;;;-144.67;100.00
47522;BME280;32291;52.010;4.446;2023-08-24T00:08:32;77951.41;;;-144.67;100.00
47522;BME280;32291;52.010;4.446;2023-08-24T00:09:34;77949.28;;;-144.67;100.00
47522;BME280;32291;52.010;4.446;2023-08-24T00:10:44;77949.28;;;-144.67;100.00
47522;BME280;32291;52.010;4.446;2023-08-24T00:11:56;77949.28;;;-144.67;100.00
47522;BME280;32291;52.010;4.446;2023-08-24T00:13:04;77949.28;;;-144.67;100.00
47522;BME280;32291;52.010;4.446;2023-08-24T00:14:07;77953.56;;;-144.67;100.00
47522;BME280;32291;52.010;4.446;2023-08-24T00:15:09;77951.41;;;-144.67;100.00
47522;BME280;32291;52.010;4.446;2023-08-24T00:16:18;77953.56;;;-144.67;100.00
47522;BME280;32291;52.010;4.446;2023-08-24T00:17:21;77955.69;;;-144.67;100.00
47522;BME280;32291;52.010;4.446;2023-08-24T00:18:32;77953.56;;;-144.67;100.00
47522;BME280;32291;52.010;4.446;2023-08-24T00:19:35;77949.28;;;-144.67;100.00
47522;BME280;32291;52.010;4.446;2023-08-24T00:20:37;77947.13;;;-144.67;100.00
47522;BME280;32291;52.010;4.446;2023-08-24T00:21:39;77949.28;;;-144.67;100.00
47522;BME280;32291;52.010;4.446;2023-08-24T00:22:42;77945.00;;;-144.67;100.00
47522;BME280;32291;52.010;4.446;2023-08-24T00:23:44;77945.00;;;-144.67;100.00
47522;BME280;32291;52.010;4.446;2023-08-24T00:24:51;77949.28;;;-144.67;100.00
47522;BME280;32291;52.010;4.446;2023-08-24T00:25:56;77940.72;;;-144.67;100.00
47522;BME280;32291;52.010;4.446;2023-08-24T00:27:03;77942.84;;;-144.67;100.00
47522;BME280;32291;52.010;4.446;2023-08-24T00:28:05;77938.56;;;-144.67;100.00
47522;BME280;32291;52.010;4.446;2023-08-24T00:29:13;77945.00;;;-144.67;100.00
47522;BME280;32291;52.010;4.446;2023-08-24T00:30:15;77945.00;;;-144.67;100.00
47522;BME280;32291;52.010;4.446;2023-08-24T00:31:22;77942.84;;;-144.67;100.00
47522;BME280;32291;52.010;4.446;2023-08-24T00:32:29;77940.72;;;-144.67;100.00
47522;BME280;32291;52.010;4.446;2023-08-24T00:33:31;77949.28;;;-144.67;100.00
47522;BME280;32291;52.010;4.446;2023-08-24T00:34:38;77947.13;;;-144.67;100.00
47522;BME280;32291;52.010;4.446;2023-08-24T00:35:43;77947.13;;;-144.67;100.00
47522;BME280;32291;52.010;4.446;2023-08-24T00:36:45;77945.00;;;-144.67;100.00
47522;BME280;32291;52.010;4.446;2023-08-24T00:37:48;77945.00;;;-144.67;100.00
47522;BME280;32291;52.010;4.446;2023-08-24T00:38:55;77949.28;;;-144.67;100.00
47522;BME280;32291;52.010;4.446;2023-08-24T00:40:04;77945.00;;;-144.67;100.00
47522;BME280;32291;52.010;4.446;2023-08-24T00:41:10;77940.72;;;-144.67;100.00
47522;BME280;32291;52.010;4.446;2023-08-24T00:42:14;77940.72;;;-144.67;100.00
47522;BME280;32291;52.010;4.446;2023-08-24T00:43:17;77942.84;;;-144.67;100.00
47522;BME280;32291;52.010;4.446;2023-08-24T00:44:19;77942.84;;;-144.67;100.00
47522;BME280;32291;52.010;4.446;2023-08-24T00:45:22;77936.44;;;-144.67;100.00
47522;BME280;32291;52.010;4.446;2023-08-24T00:46:26;77934.28;;;-144.67;100.00
47522;BME280;32291;52.010;4.446;2023-08-24T00:47:39;77936.44;;;-144.67;100.00
47522;BME280;32291;52.010;4.446;2023-08-24T00:48:42;77945.00;;;-144.67;100.00
47522;BME280;32291;52.010;4.446;2023-08-24T00:49:45;77940.72;;;-144.67;100.00
47522;BME280;32291;52.010;4.446;2023-08-24T00:50:47;77942.84;;;-144.67;100.00
47522;BME280;32291;52.010;4.446;2023-08-24T00:51:50;77940.72;;;-144.67;100.00
47522;BME280;32291;52.010;4.446;2023-08-24T00:52:58;77942.84;;;-144.67;100.00
47522;BME280;32291;52.010;4.446;2023-08-24T00:54:05;77936.44;;;-144.67;100.00
47522;BME280;32291;52.010;4.446;2023-08-24T00:55:13;77942.84;;;-144.67;100.00
47522;BME280;32291;52.010;4.446;2023-08-24T00:56:16;77945.00;;;-144.67;100.00
47522;BME280;32291;52.010;4.446;2023-08-24T00:57:23;77945.00;;;-144.67;100.00
47522;BME280;32291;52.010;4.446;2023-08-24T00:58:34;77945.00;;;-144.67;100.00
47522;BME280;32291;52.010;4.446;2023-08-24T00:59:41;77945.00;;;-144.67;100.00
47522;BME280;32291;52.010;4.446;2023-08-24T01:00:44;77945.00;;;-144.67;100.00
47522;BME280;32291;52.010;4.446;2023-08-24T01:01:47;77947.13;;;-144.67;100.00
47522;BME280;32291;52.010;4.446;2023-08-24T01:02:50;77945.00;;;-144.67;100.00
47522;BME280;32291;52.010;4.446;2023-08-24T01:03:53;77940.72;;;-144.67;100.00
47522;BME280;32291;52.010;4.446;2023-08-24T01:04:56;77936.44;;;-144.67;100.00
47522;BME280;32291;52.010;4.446;2023-08-24T01:05:58;77927.88;;;-144.67;100.00
47522;BME280;32291;52.010;4.446;2023-08-24T01:07:05;77923.59;;;-144.67;100.00
47522;BME280;32291;52.010;4.446;2023-08-24T01:08:08;77930.00;;;-144.67;100.00
47522;BME280;32291;52.010;4.446;2023-08-24T01:09:11;77921.44;;;-144.67;100.00
47522;BME280;32291;52.010;4.446;2023-08-24T01:10:14;77919.31;;;-144.67;100.00
47522;BME280;32291;52.010;4.446;2023-08-24T01:13:10;77906.47;;;-144.67;100.00
47522;BME280;32291;52.010;4.446;2023-08-24T01:14:41;77906.47;;;-144.67;100.00
47522;BME280;32291;52.010;4.446;2023-08-24T01:16:04;77908.59;;;-144.67;100.00
47522;BME280;32291;52.010;4.446;2023-08-24T01:17:19;77910.75;;;-144.67;100.00
47522;BME280;32291;52.010;4.446;2023-08-24T01:18:31;77912.88;;;-144.67;100.00
47522;BME280;32291;52.010;4.446;2023-08-24T01:19:54;77906.47;;;-144.67;100.00
47522;BME280;32291;52.010;4.446;2023-08-24T01:21:06;77908.59;;;-144.67;100.00
47522;BME280;32291;52.010;4.446;2023-08-24T01:22:30;77910.75;;;-144.67;100.00
47522;BME280;32291;52.010;4.446;2023-08-24T01:23:53;77915.03;;;-144.67;100.00
47522;BME280;32291;52.010;4.446;2023-08-24T01:26:20;77910.75;;;-144.67;100.00
47522;BME280;32291;52.010;4.446;2023-08-24T01:27:24;77912.88;;;-144.67;100.00
47522;BME280;32291;52.010;4.446;2023-08-24T01:28:37;77908.59;;;-144.67;100.00
47522;BME280;32291;52.010;4.446;2023-08-24T01:29:41;77904.31;;;-144.67;100.00
47522;BME280;32291;52.010;4.446;2023-08-24T01:30:44;77906.47;;;-144.67;100.00
47522;BME280;32291;52.010;4.446;2023-08-24T01:31:52;77906.47;;;-144.67;100.00
47522;BME280;32291;52.010;4.446;2023-08-24T01:32:57;77915.03;;;-144.67;100.00
47522;BME280;32291;52.010;4.446;2023-08-24T01:34:04;77921.44;;;-144.67;100.00
47522;BME280;32291;52.010;4.446;2023-08-24T01:35:11;77923.59;;;-144.67;100.00
47522;BME280;32291;52.010;4.446;2023-08-24T01:36:15;77921.44;;;-144.67;100.00
47522;BME280;32291;52.010;4.446;2023-08-24T01:37:26;77915.03;;;-144.67;100.00
47522;BME280;32291;52.010;4.446;2023-08-24T01:38:30;77919.31;;;-144.67;100.00
47522;BME280;32291;52.010;4.446;2023-08-24T01:39:55;77910.75;;;-144.67;100.00
47522;BME280;32291;52.010;4.446;2023-08-24T01:41:22;77906.47;;;-144.67;100.00
47522;BME280;32291;52.010;4.446;2023-08-24T01:42:30;77906.47;;;-144.67;100.00
47522;BME280;32291;52.010;4.446;2023-08-24T01:43:36;77908.59;;;-144.67;100.00
47522;BME280;32291;52.010;4.446;2023-08-24T01:44:50;77910.75;;;-144.67;100.00
47522;BME280;32291;52.010;4.446;2023-08-24T01:45:58;77902.19;;;-144.67;100.00
47522;BME280;32291;52.010;4.446;2023-08-24T01:47:07;77906.47;;;-144.67;100.00
47522;BME280;32291;52.010;4.446;2023-08-24T01:48:18;77897.91;;;-144.67;100.00
47522;BME280;32291;52.010;4.446;2023-08-24T01:49:23;77895.75;;;-144.67;100.00
47522;BME280;32291;52.010;4.446;2023-08-24T01:50:27;77889.34;;;-144.67;100.00
47522;BME280;32291;52.010;4.446;2023-08-24T01:51:30;77893.63;;;-144.67;100.00
47522;BME280;32291;52.010;4.446;2023-08-24T01:52:34;77893.63;;;-144.67;100.00
47522;BME280;32291;52.010;4.446;2023-08-24T01:53:43;77897.91;;;-144.67;100.00
47522;BME280;32291;52.010;4.446;2023-08-24T01:54:47;77900.03;;;-144.67;100.00
47522;BME280;32291;52.010;4.446;2023-08-24T01:55:55;77897.91;;;-144.67;100.00
47522;BME280;32291;52.010;4.446;2023-08-24T01:57:05;77893.63;;;-144.67;100.00
47522;BME280;32291;52.010;4.446;2023-08-24T01:58:12;77891.47;;;-144.67;100.00
47522;BME280;32291;52.010;4.446;2023-08-24T01:59:15;77893.63;;;-144.67;100.00
47522;BME280;32291;52.010;4.446;2023-08-24T02:00:17;77893.63;;;-144.67;100.00
47522;BME280;32291;52.010;4.446;2023-08-24T02:01:27;77897.91;;;-144.67;100.00
47522;BME280;32291;52.010;4.446;2023-08-24T02:02:29;77895.75;;;-144.67;100.00
47522;BME280;32291;52.010;4.446;2023-08-24T02:03:31;77893.63;;;-144.67;100.00
47522;BME280;32291;52.010;4.446;2023-08-24T02:04:34;77893.63;;;-144.67;100.00
47522;BME280;32291;52.010;4.446;2023-08-24T02:05:36;77885.06;;;-144.67;100.00
47522;BME280;32291;52.010;4.446;2023-08-24T02:06:38;77885.06;;;-144.67;100.00
47522;BME280;32291;52.010;4.446;2023-08-24T02:07:45;77880.78;;;-144.67;100.00
47522;BME280;32291;52.010;4.446;2023-08-24T02:08:52;77872.22;;;-144.67;100.00
47522;BME280;32291;52.010;4.446;2023-08-24T02:09:57;77872.22;;;-144.67;100.00
47522;BME280;32291;52.010;4.446;2023-08-24T02:11:00;77876.50;;;-144.67;100.00
47522;BME280;32291;52.010;4.446;2023-08-24T02:12:03;77878.63;;;-144.67;100.00
47522;BME280;32291;52.010;4.446;2023-08-24T02:13:10;77872.22;;;-144.67;100.00
47522;BME280;32291;52.010;4.446;2023-08-24T02:14:13;77865.78;;;-144.67;100.00
47522;BME280;32291;52.010;4.446;2023-08-24T02:15:15;77863.63;;;-144.67;100.00
47522;BME280;32291;52.010;4.446;2023-08-24T02:16:22;77859.38;;;-144.67;100.00
47522;BME280;32291;52.010;4.446;2023-08-24T02:17:26;77848.66;;;-144.67;100.00
47522;BME280;32291;52.010;4.446;2023-08-24T02:18:28;77859.38;;;-144.67;100.00
47522;BME280;32291;52.010;4.446;2023-08-24T02:19:32;77857.22;;;-144.67;100.00
47522;BME280;32291;52.010;4.446;2023-08-24T02:20:40;77861.50;;;-144.67;100.00
47522;BME280;32291;52.010;4.446;2023-08-24T02:21:43;77859.38;;;-144.67;100.00
47522;BME280;32291;52.010;4.446;2023-08-24T02:22:45;77863.63;;;-144.67;100.00
47522;BME280;32291;52.010;4.446;2023-08-24T02:23:47;77863.63;;;-144.67;100.00
47522;BME280;32291;52.010;4.446;2023-08-24T02:24:49;77870.06;;;-144.67;100.00
47522;BME280;32291;52.010;4.446;2023-08-24T02:25:52;77872.22;;;-144.67;100.00
47522;BME280;32291;52.010;4.446;2023-08-24T02:26:59;77880.78;;;-144.67;100.00
47522;BME280;32291;52.010;4.446;2023-08-24T02:28:03;77885.06;;;-144.67;100.00
47522;BME280;32291;52.010;4.446;2023-08-24T02:29:05;77882.91;;;-144.67;100.00
47522;BME280;32291;52.010;4.446;2023-08-24T02:30:08;77876.50;;;-144.67;100.00
47522;BME280;32291;52.010;4.446;2023-08-24T02:31:10;77880.78;;;-144.67;100.00
47522;BME280;32291;52.010;4.446;2023-08-24T02:32:18;77880.78;;;-144.67;100.00
47522;BME280;32291;52.010;4.446;2023-08-24T02:33:20;77880.78;;;-144.67;100.00
47522;BME280;32291;52.010;4.446;2023-08-24T02:34:27;77885.06;;;-144.67;100.00
47522;BME280;32291;52.010;4.446;2023-08-24T02:35:32;77882.91;;;-144.67;100.00
47522;BME280;32291;52.010;4.446;2023-08-24T02:36:34;77880.78;;;-144.67;100.00
47522;BME280;32291;52.010;4.446;2023-08-24T02:37:41;77880.78;;;-144.67;100.00
47522;BME280;32291;52.010;4.446;2023-08-24T02:38:49;77872.22;;;-144.67;100.00
47522;BME280;32291;52.010;4.446;2023-08-24T02:39:51;77878.63;;;-144.67;100.00
47522;BME280;32291;52.010;4.446;2023-08-24T02:41:03;77882.91;;;-144.67;100.00
47522;BME280;32291;52.010;4.446;2023-08-24T02:42:10;77885.06;;;-144.67;100.00
47522;BME280;32291;52.010;4.446;2023-08-24T02:43:13;77878.63;;;-144.67;100.00
47522;BME280;32291;52.010;4.446;2023-08-24T02:44:15;77885.06;;;-144.67;100.00
47522;BME280;32291;52.010;4.446;2023-08-24T02:45:17;77889.34;;;-144.67;100.00
47522;BME280;32291;52.010;4.446;2023-08-24T02:46:25;77882.91;;;-144.67;100.00
47522;BME280;32291;52.010;4.446;2023-08-24T02:47:27;77874.34;;;-144.67;100.00
47522;BME280;32291;52.010;4.446;2023-08-24T02:48:30;77874.34;;;-144.67;100.00
47522;BME280;32291;52.010;4.446;2023-08-24T02:49:33;77865.78;;;-144.67;100.00
47522;BME280;32291;52.010;4.446;2023-08-24T02:50:35;77870.06;;;-144.67;100.00
47522;BME280;32291;52.010;4.446;2023-08-24T02:51:42;77863.63;;;-144.67;100.00
47522;BME280;32291;52.010;4.446;2023-08-24T02:52:45;77867.94;;;-144.67;100.00
47522;BME280;32291;52.010;4.446;2023-08-24T02:53:48;77861.50;;;-144.67;100.00
47522;BME280;32291;52.010;4.446;2023-08-24T02:54:50;77863.63;;;-144.67;100.00
47522;BME280;32291;52.010;4.446;2023-08-24T02:55:57;77857.22;;;-144.67;100.00
47522;BME280;32291;52.010;4.446;2023-08-24T02:57:00;77859.38;;;-144.67;100.00
47522;BME280;32291;52.010;4.446;2023-08-24T02:58:03;77850.81;;;-144.67;100.00
47522;BME280;32291;52.010;4.446;2023-08-24T02:59:06;77850.81;;;-144.67;100.00
47522;BME280;32291;52.010;4.446;2023-08-24T03:00:08;77850.81;;;-144.67;100.00
47522;BME280;32291;52.010;4.446;2023-08-24T03:01:12;77846.50;;;-144.67;100.00
47522;BME280;32291;52.010;4.446;2023-08-24T03:02:14;77855.09;;;-144.67;100.00
47522;BME280;32291;52.010;4.446;2023-08-24T03:03:21;77850.81;;;-144.67;100.00
47522;BME280;32291;52.010;4.446;2023-08-24T03:04:23;77844.38;;;-144.67;100.00
47522;BME280;32291;52.010;4.446;2023-08-24T03:05:29;77846.50;;;-144.67;100.00
47522;BME280;32291;52.010;4.446;2023-08-24T03:06:36;77837.97;;;-144.67;100.00
47522;BME280;32291;52.010;4.446;2023-08-24T03:07:44;77850.81;;;-144.67;100.00
47522;BME280;32291;52.010;4.446;2023-08-24T03:08:51;77850.81;;;-144.67;100.00
47522;BME280;32291;52.010;4.446;2023-08-24T03:09:58;77848.66;;;-144.67;100.00
47522;BME280;32291;52.010;4.446;2023-08-24T03:11:01;77855.09;;;-144.67;100.00
47522;BME280;32291;52.010;4.446;2023-08-24T03:12:09;77859.38;;;-144.67;100.00
47522;BME280;32291;52.010;4.446;2023-08-24T03:13:13;77852.94;;;-144.67;100.00
47522;BME280;32291;52.010;4.446;2023-08-24T03:14:20;77852.94;;;-144.67;100.00
47522;BME280;32291;52.010;4.446;2023-08-24T03:15:22;77852.94;;;-144.67;100.00
47522;BME280;32291;52.010;4.446;2023-08-24T03:16:28;77850.81;;;-144.67;100.00
47522;BME280;32291;52.010;4.446;2023-08-24T03:17:35;77846.50;;;-144.67;100.00
47522;BME280;32291;52.010;4.446;2023-08-24T03:18:37;77840.09;;;-144.67;100.00
47522;BME280;32291;52.010;4.446;2023-08-24T03:19:44;77846.50;;;-144.67;100.00
47522;BME280;32291;52.010;4.446;2023-08-24T03:20:48;77842.22;;;-144.67;100.00
47522;BME280;32291;52.010;4.446;2023-08-24T03:21:55;77842.22;;;-144.67;100.00
47522;BME280;32291;52.010;4.446;2023-08-24T03:22:57;77844.38;;;-144.67;100.00
47522;BME280;32291;52.010;4.446;2023-08-24T03:24:02;77844.38;;;-144.67;100.00
47522;BME280;32291;52.010;4.446;2023-08-24T03:25:06;77842.22;;;-144.67;100.00
47522;BME280;32291;52.010;4.446;2023-08-24T03:26:09;77840.09;;;-144.67;100.00
47522;BME280;32291;52.010;4.446;2023-08-24T03:27:16;77840.09;;;-144.67;100.00
47522;BME280;32291;52.010;4.446;2023-08-24T03:28:23;77846.50;;;-144.67;100.00
47522;BME280;32291;52.010;4.446;2023-08-24T03:29:26;77859.38;;;-144.67;100.00
47522;BME280;32291;52.010;4.446;2023-08-24T03:30:28;77859.38;;;-144.67;100.00
47522;BME280;32291;52.010;4.446;2023-08-24T03:31:35;77855.09;;;-144.67;100.00
47522;BME280;32291;52.010;4.446;2023-08-24T03:32:39;77859.38;;;-144.67;100.00
47522;BME280;32291;52.010;4.446;2023-08-24T03:33:42;77855.09;;;-144.67;100.00
47522;BME280;32291;52.010;4.446;2023-08-24T03:34:49;77852.94;;;-144.67;100.00
47522;BME280;32291;52.010;4.446;2023-08-24T03:35:52;77852.94;;;-144.67;100.00
47522;BME280;32291;52.010;4.446;2023-08-24T03:36:57;77861.50;;;-144.67;100.00
47522;BME280;32291;52.010;4.446;2023-08-24T03:38:00;77867.94;;;-144.67;100.00
47522;BME280;32291;52.010;4.446;2023-08-24T03:39:06;77863.63;;;-144.67;100.00
47522;BME280;32291;52.010;4.446;2023-08-24T03:40:08;77876.50;;;-144.67;100.00
47522;BME280;32291;52.010;4.446;2023-08-24T03:41:11;77891.47;;;-144.67;100.00
47522;BME280;32291;52.010;4.446;2023-08-24T03:42:13;77889.34;;;-144.67;100.00
47522;BME280;32291;52.010;4.446;2023-08-24T03:43:16;77889.34;;;-144.67;100.00
47522;BME280;32291;52.010;4.446;2023-08-24T03:44:21;77895.75;;;-144.67;100.00
47522;BME280;32291;52.010;4.446;2023-08-24T03:45:24;77891.47;;;-144.67;100.00
47522;BME280;32291;52.010;4.446;2023-08-24T03:46:29;77889.34;;;-144.67;100.00
47522;BME280;32291;52.010;4.446;2023-08-24T03:47:31;77889.34;;;-144.67;100.00
47522;BME280;32291;52.010;4.446;2023-08-24T03:48:34;77887.19;;;-144.67;100.00
47522;BME280;32291;52.010;4.446;2023-08-24T03:49:36;77882.91;;;-144.67;100.00
47522;BME280;32291;52.010;4.446;2023-08-24T03:50:44;77882.91;;;-144.67;100.00
47522;BME280;32291;52.010;4.446;2023-08-24T03:51:46;77889.34;;;-144.67;100.00
47522;BME280;32291;52.010;4.446;2023-08-24T03:52:52;77878.63;;;-144.67;100.00
47522;BME280;32291;52.010;4.446;2023-08-24T03:53:56;77885.06;;;-144.67;100.00
47522;BME280;32291;52.010;4.446;2023-08-24T03:54:59;77880.78;;;-144.67;100.00
47522;BME280;32291;52.010;4.446;2023-08-24T03:56:06;77880.78;;;-144.67;100.00
47522;BME280;32291;52.010;4.446;2023-08-24T03:57:08;77882.91;;;-144.67;100.00
47522;BME280;32291;52.010;4.446;2023-08-24T03:58:10;77880.78;;;-144.67;100.00
47522;BME280;32291;52.010;4.446;2023-08-24T03:59:13;77889.34;;;-144.67;100.00
47522;BME280;32291;52.010;4.446;2023-08-24T04:00:16;77885.06;;;-144.67;100.00
47522;BME280;32291;52.010;4.446;2023-08-24T04:01:27;77889.34;;;-144.67;100.00
47522;BME280;32291;52.010;4.446;2023-08-24T04:02:29;77889.34;;;-144.67;100.00
47522;BME280;32291;52.010;4.446;2023-08-24T04:03:31;77885.06;;;-144.67;100.00
47522;BME280;32291;52.010;4.446;2023-08-24T04:04:33;77885.06;;;-144.67;100.00
47522;BME280;32291;52.010;4.446;2023-08-24T04:05:36;77887.19;;;-144.67;100.00
47522;BME280;32291;52.010;4.446;2023-08-24T04:06:38;77882.91;;;-144.67;100.00
47522;BME280;32291;52.010;4.446;2023-08-24T04:07:45;77880.78;;;-144.67;100.00
47522;BME280;32291;52.010;4.446;2023-08-24T04:08:52;77885.06;;;-144.67;100.00
47522;BME280;32291;52.010;4.446;2023-08-24T04:09:58;77887.19;;;-144.67;100.00
47522;BME280;32291;52.010;4.446;2023-08-24T04:11:00;77880.78;;;-144.67;100.00
47522;BME280;32291;52.010;4.446;2023-08-24T04:12:06;77880.78;;;-144.67;100.00
47522;BME280;32291;52.010;4.446;2023-08-24T04:13:13;77880.78;;;-144.67;100.00
47522;BME280;32291;52.010;4.446;2023-08-24T04:14:20;77876.50;;;-144.67;100.00
47522;BME280;32291;52.010;4.446;2023-08-24T04:15:27;77887.19;;;-144.67;100.00
47522;BME280;32291;52.010;4.446;2023-08-24T04:16:29;77878.63;;;-144.67;100.00
47522;BME280;32291;52.010;4.446;2023-08-24T04:17:31;77885.06;;;-144.67;100.00
47522;BME280;32291;52.010;4.446;2023-08-24T04:18:34;77878.63;;;-144.67;100.00
47522;BME280;32291;52.010;4.446;2023-08-24T04:19:38;77880.78;;;-144.67;100.00
47522;BME280;32291;52.010;4.446;2023-08-24T04:20:45;77872.22;;;-144.67;100.00
47522;BME280;32291;52.010;4.446;2023-08-24T04:21:47;77872.22;;;-144.67;100.00
47522;BME280;32291;52.010;4.446;2023-08-24T04:22:57;77872.22;;;-144.67;100.00
47522;BME280;32291;52.010;4.446;2023-08-24T04:24:00;77865.78;;;-144.67;100.00
47522;BME280;32291;52.010;4.446;2023-08-24T04:25:03;77867.94;;;-144.67;100.00
47522;BME280;32291;52.010;4.446;2023-08-24T04:26:05;77867.94;;;-144.67;100.00
47522;BME280;32291;52.010;4.446;2023-08-24T04:27:13;77872.22;;;-144.67;100.00
47522;BME280;32291;52.010;4.446;2023-08-24T04:28:15;77876.50;;;-144.67;100.00
47522;BME280;32291;52.010;4.446;2023-08-24T04:29:17;77876.50;;;-144.67;100.00
47522;BME280;32291;52.010;4.446;2023-08-24T04:30:24;77876.50;;;-144.67;100.00
47522;BME280;32291;52.010;4.446;2023-08-24T04:31:27;77880.78;;;-144.67;100.00
47522;BME280;32291;52.010;4.446;2023-08-24T04:32:33;77880.78;;;-144.67;100.00
47522;BME280;32291;52.010;4.446;2023-08-24T04:33:40;77876.50;;;-144.67;100.00
47522;BME280;32291;52.010;4.446;2023-08-24T04:34:43;77876.50;;;-144.67;100.00
47522;BME280;32291;52.010;4.446;2023-08-24T04:35:49;77880.78;;;-144.67;100.00
47522;BME280;32291;52.010;4.446;2023-08-24T04:36:51;77885.06;;;-144.67;100.00
47522;BME280;32291;52.010;4.446;2023-08-24T04:37:54;77880.78;;;-144.67;100.00
47522;BME280;32291;52.010;4.446;2023-08-24T04:38:57;77878.63;;;-144.67;100.00
47522;BME280;32291;52.010;4.446;2023-08-24T04:39:59;77878.63;;;-144.67;100.00
47522;BME280;32291;52.010;4.446;2023-08-24T04:41:07;77878.63;;;-144.67;100.00
47522;BME280;32291;52.010;4.446;2023-08-24T04:42:10;77872.22;;;-144.67;100.00
47522;BME280;32291;52.010;4.446;2023-08-24T04:43:12;77876.50;;;-144.67;100.00
47522;BME280;32291;52.010;4.446;2023-08-24T04:44:14;77876.50;;;-144.67;100.00
47522;BME280;32291;52.010;4.446;2023-08-24T04:45:22;77874.34;;;-144.67;100.00
47522;BME280;32291;52.010;4.446;2023-08-24T04:46:24;77870.06;;;-144.67;100.00
47522;BME280;32291;52.010;4.446;2023-08-24T04:47:28;77865.78;;;-144.67;100.00
47522;BME280;32291;52.010;4.446;2023-08-24T04:48:30;77863.63;;;-144.67;100.00
47522;BME280;32291;52.010;4.446;2023-08-24T04:49:39;77867.94;;;-144.67;100.00
47522;BME280;32291;52.010;4.446;2023-08-24T04:50:45;77863.63;;;-144.67;100.00
47522;BME280;32291;52.010;4.446;2023-08-24T04:51:48;77859.38;;;-144.67;100.00
47522;BME280;32291;52.010;4.446;2023-08-24T04:52:53;77857.22;;;-144.67;100.00
47522;BME280;32291;52.010;4.446;2023-08-24T04:53:55;77857.22;;;-144.67;100.00
47522;BME280;32291;52.010;4.446;2023-08-24T04:54:58;77852.94;;;-144.67;100.00
47522;BME280;32291;52.010;4.446;2023-08-24T04:56:00;77848.66;;;-144.67;100.00
47522;BME280;32291;52.010;4.446;2023-08-24T04:57:07;77850.81;;;-144.67;100.00
47522;BME280;32291;52.010;4.446;2023-08-24T04:58:10;77852.94;;;-144.67;100.00
47522;BME280;32291;52.010;4.446;2023-08-24T04:59:13;77850.81;;;-144.67;100.00
47522;BME280;32291;52.010;4.446;2023-08-24T05:00:15;77852.94;;;-144.67;100.00
47522;BME280;32291;52.010;4.446;2023-08-24T05:01:27;77857.22;;;-144.67;100.00
47522;BME280;32291;52.010;4.446;2023-08-24T05:02:34;77855.09;;;-144.67;100.00
47522;BME280;32291;52.010;4.446;2023-08-24T05:03:36;77852.94;;;-144.67;100.00
47522;BME280;32291;52.010;4.446;2023-08-24T05:04:38;77857.22;;;-144.67;100.00
47522;BME280;32291;52.010;4.446;2023-08-24T05:05:41;77855.09;;;-144.67;100.00
47522;BME280;32291;52.010;4.446;2023-08-24T05:06:43;77859.38;;;-144.67;100.00
47522;BME280;32291;52.010;4.446;2023-08-24T05:07:45;77850.81;;;-144.67;100.00
47522;BME280;32291;52.010;4.446;2023-08-24T05:08:52;77850.81;;;-144.67;100.00
47522;BME280;32291;52.010;4.446;2023-08-24T05:09:55;77850.81;;;-144.67;100.00
47522;BME280;32291;52.010;4.446;2023-08-24T05:11:13;77850.81;;;-144.67;100.00
47522;BME280;32291;52.010;4.446;2023-08-24T05:12:20;77837.97;;;-144.67;100.00
47522;BME280;32291;52.010;4.446;2023-08-24T05:13:23;77840.09;;;-144.67;100.00
47522;BME280;32291;52.010;4.446;2023-08-24T05:14:32;77837.97;;;-144.67;100.00
47522;BME280;32291;52.010;4.446;2023-08-24T05:15:35;77829.38;;;-144.67;100.00
47522;BME280;32291;52.010;4.446;2023-08-24T05:16:42;77827.25;;;-144.67;100.00
47522;BME280;32291;52.010;4.446;2023-08-24T05:17:50;77825.09;;;-144.67;100.00
47522;BME280;32291;52.010;4.446;2023-08-24T05:18:56;77829.38;;;-144.67;100.00
47522;BME280;32291;52.010;4.446;2023-08-24T05:19:59;77831.53;;;-144.67;100.00
47522;BME280;32291;52.010;4.446;2023-08-24T05:21:04;77825.09;;;-144.67;100.00
47522;BME280;32291;52.010;4.446;2023-08-24T05:22:07;77822.97;;;-144.67;100.00
47522;BME280;32291;52.010;4.446;2023-08-24T05:23:13;77820.84;;;-144.67;100.00
47522;BME280;32291;52.010;4.446;2023-08-24T05:24:15;77825.09;;;-144.67;100.00
47522;BME280;32291;52.010;4.446;2023-08-24T05:25:23;77825.09;;;-144.67;100.00
47522;BME280;32291;52.010;4.446;2023-08-24T05:26:28;77822.97;;;-144.67;100.00
47522;BME280;32291;52.010;4.446;2023-08-24T05:27:30;77825.09;;;-144.67;100.00
47522;BME280;32291;52.010;4.446;2023-08-24T05:28:37;77816.53;;;-144.67;100.00
47522;BME280;32291;52.010;4.446;2023-08-24T05:29:44;77816.53;;;-144.67;100.00
47522;BME280;32291;52.010;4.446;2023-08-24T05:30:46;77816.53;;;-144.67;100.00
47522;BME280;32291;52.010;4.446;2023-08-24T05:31:53;77816.53;;;-144.67;100.00
47522;BME280;32291;52.010;4.446;2023-08-24T05:32:56;77812.25;;;-144.67;100.00
47522;BME280;32291;52.010;4.446;2023-08-24T05:33:58;77810.13;;;-144.67;100.00
47522;BME280;32291;52.010;4.446;2023-08-24T05:35:00;77807.97;;;-144.67;100.00
47522;BME280;32291;52.010;4.446;2023-08-24T05:36:03;77803.69;;;-144.67;100.00